sensor_id;sensor_type;location;lat;lon;timestamp;P1;durP1;ratioP1;P2;durP2;ratioP2
54977;SDS011;40873;47.522;19.106;2023-02-28T00:01:05;16.13;;;8.02;;
54977;SDS011;40873;47.522;19.106;2023-02-28T00:03:32;20.38;;;7.35;;
54977;SDS011;40873;47.522;19.106;2023-02-28T00:06:02;15.88;;;7.80;;
54977;SDS011;40873;47.522;19.106;2023-02-28T00:08:30;20.98;;;8.88;;
54977;SDS011;40873;47.522;19.106;2023-02-28T00:11:04;14.20;;;8.00;;
54977;SDS011;40873;47.522;19.106;2023-02-28T00:13:33;14.55;;;8.10;;
54977;SDS011;40873;47.522;19.106;2023-02-28T00:16:05;17.35;;;8.57;;
54977;SDS011;40873;47.522;19.106;2023-02-28T00:18:34;17.58;;;8.60;;
54977;SDS011;40873;47.522;19.106;2023-02-28T00:21:02;19.70;;;9.57;;
54977;SDS011;40873;47.522;19.106;2023-02-28T00:23:29;15.27;;;8.23;;
54977;SDS011;40873;47.522;19.106;2023-02-28T00:25:56;18.85;;;7.75;;
54977;SDS011;40873;47.522;19.106;2023-02-28T00:28:23;19.50;;;9.48;;
54977;SDS011;40873;47.522;19.106;2023-02-28T00:30:50;22.80;;;9.07;;
54977;SDS011;40873;47.522;19.106;2023-02-28T00:33:17;21.00;;;8.98;;
54977;SDS011;40873;47.522;19.106;2023-02-28T00:35:44;20.48;;;8.82;;
54977;SDS011;40873;47.522;19.106;2023-02-28T00:38:15;18.88;;;9.13;;
54977;SDS011;40873;47.522;19.106;2023-02-28T00:40:43;19.73;;;9.05;;
54977;SDS011;40873;47.522;19.106;2023-02-28T00:43:10;20.45;;;9.75;;
54977;SDS011;40873;47.522;19.106;2023-02-28T00:45:37;22.73;;;9.35;;
54977;SDS011;40873;47.522;19.106;2023-02-28T00:48:04;18.73;;;9.32;;
54977;SDS011;40873;47.522;19.106;2023-02-28T00:50:31;24.98;;;11.02;;
54977;SDS011;40873;47.522;19.106;2023-02-28T00:52:58;17.75;;;10.63;;
54977;SDS011;40873;47.522;19.106;2023-02-28T00:55:25;23.40;;;10.82;;
54977;SDS011;40873;47.522;19.106;2023-02-28T00:57:51;24.00;;;10.63;;
54977;SDS011;40873;47.522;19.106;2023-02-28T01:00:19;23.00;;;10.10;;
54977;SDS011;40873;47.522;19.106;2023-02-28T01:02:46;23.02;;;10.45;;
54977;SDS011;40873;47.522;19.106;2023-02-28T01:05:13;21.90;;;11.38;;
54977;SDS011;40873;47.522;19.106;2023-02-28T01:07:40;20.75;;;9.75;;
54977;SDS011;40873;47.522;19.106;2023-02-28T01:10:07;21.55;;;10.05;;
54977;SDS011;40873;47.522;19.106;2023-02-28T01:12:35;16.58;;;9.85;;
54977;SDS011;40873;47.522;19.106;2023-02-28T01:15:02;20.63;;;9.52;;
54977;SDS011;40873;47.522;19.106;2023-02-28T01:17:29;19.15;;;9.93;;
54977;SDS011;40873;47.522;19.106;2023-02-28T01:19:56;23.60;;;10.32;;
54977;SDS011;40873;47.522;19.106;2023-02-28T01:22:23;20.02;;;10.13;;
54977;SDS011;40873;47.522;19.106;2023-02-28T01:24:50;23.25;;;11.15;;
54977;SDS011;40873;47.522;19.106;2023-02-28T01:27:17;18.08;;;8.65;;
54977;SDS011;40873;47.522;19.106;2023-02-28T01:29:44;18.05;;;9.10;;
54977;SDS011;40873;47.522;19.106;2023-02-28T01:32:11;18.95;;;8.70;;
54977;SDS011;40873;47.522;19.106;2023-02-28T01:34:38;19.92;;;9.77;;
54977;SDS011;40873;47.522;19.106;2023-02-28T01:37:05;20.85;;;9.30;;
54977;SDS011;40873;47.522;19.106;2023-02-28T01:39:32;17.38;;;8.55;;
54977;SDS011;40873;47.522;19.106;2023-02-28T01:41:59;16.45;;;8.32;;
54977;SDS011;40873;47.522;19.106;2023-02-28T01:47:27;23.05;;;8.82;;
54977;SDS011;40873;47.522;19.106;2023-02-28T01:50:01;18.88;;;8.10;;
54977;SDS011;40873;47.522;19.106;2023-02-28T01:52:30;16.42;;;8.15;;
54977;SDS011;40873;47.522;19.106;2023-02-28T01:54:59;18.85;;;7.85;;
54977;SDS011;40873;47.522;19.106;2023-02-28T01:57:29;18.77;;;7.90;;
54977;SDS011;40873;47.522;19.106;2023-02-28T02:00:11;14.50;;;7.82;;
54977;SDS011;40873;47.522;19.106;2023-02-28T02:02:43;16.23;;;8.68;;
54977;SDS011;40873;47.522;19.106;2023-02-28T02:05:15;17.45;;;8.23;;
54977;SDS011;40873;47.522;19.106;2023-02-28T02:10:21;13.30;;;8.02;;
54977;SDS011;40873;47.522;19.106;2023-02-28T02:18:25;15.30;;;7.57;;
54977;SDS011;40873;47.522;19.106;2023-02-28T02:21:09;16.42;;;8.30;;
54977;SDS011;40873;47.522;19.106;2023-02-28T02:26:45;15.20;;;8.52;;
54977;SDS011;40873;47.522;19.106;2023-02-28T02:30:31;17.50;;;8.75;;
54977;SDS011;40873;47.522;19.106;2023-02-28T02:32:44;17.63;;;8.63;;
54977;SDS011;40873;47.522;19.106;2023-02-28T02:40:23;18.05;;;8.25;;
54977;SDS011;40873;47.522;19.106;2023-02-28T02:43:07;14.40;;;8.48;;
54977;SDS011;40873;47.522;19.106;2023-02-28T02:45:42;16.15;;;8.35;;
54977;SDS011;40873;47.522;19.106;2023-02-28T02:48:33;16.70;;;8.52;;
54977;SDS011;40873;47.522;19.106;2023-02-28T02:51:05;19.70;;;9.02;;
54977;SDS011;40873;47.522;19.106;2023-02-28T02:53:41;20.05;;;9.00;;
54977;SDS011;40873;47.522;19.106;2023-02-28T02:56:19;15.27;;;8.25;;
54977;SDS011;40873;47.522;19.106;2023-02-28T02:58:51;14.77;;;7.65;;
54977;SDS011;40873;47.522;19.106;2023-02-28T03:01:20;16.33;;;8.52;;
54977;SDS011;40873;47.522;19.106;2023-02-28T03:03:59;15.95;;;8.25;;
54977;SDS011;40873;47.522;19.106;2023-02-28T03:06:29;16.23;;;7.47;;
54977;SDS011;40873;47.522;19.106;2023-02-28T03:08:56;16.05;;;7.00;;
54977;SDS011;40873;47.522;19.106;2023-02-28T03:11:23;16.83;;;7.30;;
54977;SDS011;40873;47.522;19.106;2023-02-28T03:24:50;14.65;;;6.40;;
54977;SDS011;40873;47.522;19.106;2023-02-28T03:27:33;16.55;;;6.68;;
54977;SDS011;40873;47.522;19.106;2023-02-28T03:30:26;16.20;;;6.97;;
54977;SDS011;40873;47.522;19.106;2023-02-28T03:33:09;17.65;;;7.28;;
54977;SDS011;40873;47.522;19.106;2023-02-28T03:35:58;15.43;;;7.03;;
54977;SDS011;40873;47.522;19.106;2023-02-28T03:38:42;15.48;;;7.85;;
54977;SDS011;40873;47.522;19.106;2023-02-28T03:41:21;13.05;;;7.28;;
54977;SDS011;40873;47.522;19.106;2023-02-28T03:46:57;10.98;;;5.70;;
54977;SDS011;40873;47.522;19.106;2023-02-28T03:49:36;11.25;;;5.70;;
54977;SDS011;40873;47.522;19.106;2023-02-28T03:52:10;13.18;;;7.10;;
54977;SDS011;40873;47.522;19.106;2023-02-28T03:54:40;18.20;;;7.88;;
54977;SDS011;40873;47.522;19.106;2023-02-28T03:57:17;15.10;;;7.03;;
54977;SDS011;40873;47.522;19.106;2023-02-28T04:00:13;14.43;;;5.72;;
54977;SDS011;40873;47.522;19.106;2023-02-28T04:02:44;12.30;;;6.15;;
54977;SDS011;40873;47.522;19.106;2023-02-28T04:05:11;15.40;;;7.38;;
54977;SDS011;40873;47.522;19.106;2023-02-28T04:07:38;11.23;;;5.78;;
54977;SDS011;40873;47.522;19.106;2023-02-28T04:10:05;14.02;;;7.22;;
54977;SDS011;40873;47.522;19.106;2023-02-28T04:12:33;17.35;;;5.93;;
54977;SDS011;40873;47.522;19.106;2023-02-28T04:15:00;17.45;;;6.78;;
54977;SDS011;40873;47.522;19.106;2023-02-28T04:17:27;13.23;;;6.13;;
54977;SDS011;40873;47.522;19.106;2023-02-28T04:19:54;14.10;;;5.88;;
54977;SDS011;40873;47.522;19.106;2023-02-28T04:22:23;12.40;;;5.82;;
54977;SDS011;40873;47.522;19.106;2023-02-28T04:24:52;13.43;;;6.45;;
54977;SDS011;40873;47.522;19.106;2023-02-28T04:27:21;12.63;;;5.45;;
54977;SDS011;40873;47.522;19.106;2023-02-28T04:29:48;15.27;;;6.18;;
54977;SDS011;40873;47.522;19.106;2023-02-28T04:32:15;14.10;;;5.95;;
54977;SDS011;40873;47.522;19.106;2023-02-28T04:34:42;10.07;;;5.50;;
54977;SDS011;40873;47.522;19.106;2023-02-28T04:37:09;11.30;;;6.10;;
54977;SDS011;40873;47.522;19.106;2023-02-28T04:39:40;13.55;;;5.93;;
54977;SDS011;40873;47.522;19.106;2023-02-28T04:42:08;19.25;;;7.32;;
54977;SDS011;40873;47.522;19.106;2023-02-28T04:44:35;12.45;;;6.65;;
54977;SDS011;40873;47.522;19.106;2023-02-28T04:47:02;15.30;;;6.88;;
54977;SDS011;40873;47.522;19.106;2023-02-28T04:49:29;13.32;;;6.45;;
54977;SDS011;40873;47.522;19.106;2023-02-28T04:51:56;15.82;;;6.15;;
54977;SDS011;40873;47.522;19.106;2023-02-28T04:54:23;14.63;;;6.30;;
54977;SDS011;40873;47.522;19.106;2023-02-28T04:56:50;13.55;;;6.50;;
54977;SDS011;40873;47.522;19.106;2023-02-28T04:59:17;14.50;;;4.88;;
54977;SDS011;40873;47.522;19.106;2023-02-28T05:01:47;12.68;;;6.03;;
54977;SDS011;40873;47.522;19.106;2023-02-28T05:04:15;11.20;;;4.97;;
54977;SDS011;40873;47.522;19.106;2023-02-28T05:06:44;9.68;;;4.88;;
54977;SDS011;40873;47.522;19.106;2023-02-28T05:09:11;10.85;;;4.57;;
54977;SDS011;40873;47.522;19.106;2023-02-28T05:11:38;10.45;;;4.65;;
54977;SDS011;40873;47.522;19.106;2023-02-28T05:14:06;13.95;;;4.82;;
54977;SDS011;40873;47.522;19.106;2023-02-28T05:16:37;12.43;;;5.22;;
54977;SDS011;40873;47.522;19.106;2023-02-28T05:19:04;14.25;;;4.57;;
54977;SDS011;40873;47.522;19.106;2023-02-28T05:21:33;10.75;;;5.43;;
54977;SDS011;40873;47.522;19.106;2023-02-28T05:24:11;10.97;;;5.70;;
54977;SDS011;40873;47.522;19.106;2023-02-28T05:29:07;9.00;;;3.67;;
54977;SDS011;40873;47.522;19.106;2023-02-28T05:31:34;7.57;;;4.15;;
54977;SDS011;40873;47.522;19.106;2023-02-28T05:34:01;11.95;;;4.70;;
54977;SDS011;40873;47.522;19.106;2023-02-28T05:36:30;10.57;;;5.22;;
54977;SDS011;40873;47.522;19.106;2023-02-28T05:38:57;10.40;;;4.75;;
54977;SDS011;40873;47.522;19.106;2023-02-28T05:41:25;9.52;;;5.43;;
54977;SDS011;40873;47.522;19.106;2023-02-28T05:43:53;10.98;;;4.88;;
54977;SDS011;40873;47.522;19.106;2023-02-28T05:46:20;10.65;;;4.75;;
54977;SDS011;40873;47.522;19.106;2023-02-28T05:48:47;10.57;;;5.35;;
54977;SDS011;40873;47.522;19.106;2023-02-28T05:51:15;10.02;;;4.68;;
54977;SDS011;40873;47.522;19.106;2023-02-28T05:53:43;11.75;;;5.90;;
54977;SDS011;40873;47.522;19.106;2023-02-28T05:56:12;11.98;;;5.32;;
54977;SDS011;40873;47.522;19.106;2023-02-28T05:58:39;11.70;;;5.32;;
54977;SDS011;40873;47.522;19.106;2023-02-28T06:01:24;11.32;;;5.03;;
54977;SDS011;40873;47.522;19.106;2023-02-28T06:04:06;10.50;;;5.25;;
54977;SDS011;40873;47.522;19.106;2023-02-28T06:06:45;16.10;;;6.00;;
54977;SDS011;40873;47.522;19.106;2023-02-28T06:09:16;14.77;;;6.40;;
54977;SDS011;40873;47.522;19.106;2023-02-28T06:11:44;11.48;;;5.05;;
54977;SDS011;40873;47.522;19.106;2023-02-28T06:14:15;10.10;;;5.32;;
54977;SDS011;40873;47.522;19.106;2023-02-28T06:16:43;13.35;;;5.53;;
54977;SDS011;40873;47.522;19.106;2023-02-28T06:19:10;9.50;;;4.38;;
54977;SDS011;40873;47.522;19.106;2023-02-28T06:21:37;8.70;;;4.30;;
54977;SDS011;40873;47.522;19.106;2023-02-28T06:24:04;17.52;;;5.90;;
54977;SDS011;40873;47.522;19.106;2023-02-28T06:26:32;11.23;;;5.28;;
54977;SDS011;40873;47.522;19.106;2023-02-28T06:28:59;7.45;;;4.53;;
54977;SDS011;40873;47.522;19.106;2023-02-28T06:31:27;12.75;;;5.38;;
54977;SDS011;40873;47.522;19.106;2023-02-28T06:33:55;12.43;;;5.38;;
54977;SDS011;40873;47.522;19.106;2023-02-28T06:36:23;10.68;;;4.97;;
54977;SDS011;40873;47.522;19.106;2023-02-28T06:38:50;14.50;;;6.15;;
54977;SDS011;40873;47.522;19.106;2023-02-28T06:41:24;9.75;;;4.57;;
54977;SDS011;40873;47.522;19.106;2023-02-28T06:43:52;9.32;;;4.85;;
54977;SDS011;40873;47.522;19.106;2023-02-28T06:46:20;8.32;;;4.57;;
54977;SDS011;40873;47.522;19.106;2023-02-28T06:48:47;10.90;;;5.03;;
54977;SDS011;40873;47.522;19.106;2023-02-28T06:51:15;8.73;;;4.13;;
54977;SDS011;40873;47.522;19.106;2023-02-28T06:53:48;11.20;;;4.95;;
54977;SDS011;40873;47.522;19.106;2023-02-28T06:56:16;7.57;;;4.18;;
54977;SDS011;40873;47.522;19.106;2023-02-28T06:58:50;9.20;;;4.15;;
54977;SDS011;40873;47.522;19.106;2023-02-28T07:01:19;12.20;;;4.65;;
54977;SDS011;40873;47.522;19.106;2023-02-28T07:03:49;8.85;;;5.18;;
54977;SDS011;40873;47.522;19.106;2023-02-28T07:06:19;14.88;;;5.57;;
54977;SDS011;40873;47.522;19.106;2023-02-28T07:08:49;10.95;;;5.78;;
54977;SDS011;40873;47.522;19.106;2023-02-28T07:11:20;10.10;;;5.18;;
54977;SDS011;40873;47.522;19.106;2023-02-28T07:13:49;9.57;;;4.78;;
54977;SDS011;40873;47.522;19.106;2023-02-28T07:16:17;10.55;;;4.65;;
54977;SDS011;40873;47.522;19.106;2023-02-28T07:18:44;10.43;;;4.22;;
54977;SDS011;40873;47.522;19.106;2023-02-28T07:21:12;8.35;;;4.10;;
54977;SDS011;40873;47.522;19.106;2023-02-28T07:23:39;9.48;;;4.45;;
54977;SDS011;40873;47.522;19.106;2023-02-28T07:26:10;9.75;;;5.25;;
54977;SDS011;40873;47.522;19.106;2023-02-28T07:28:41;8.77;;;4.53;;
54977;SDS011;40873;47.522;19.106;2023-02-28T07:31:09;10.05;;;5.32;;
54977;SDS011;40873;47.522;19.106;2023-02-28T07:33:36;8.38;;;4.43;;
54977;SDS011;40873;47.522;19.106;2023-02-28T07:36:05;12.82;;;5.05;;
54977;SDS011;40873;47.522;19.106;2023-02-28T07:38:36;9.70;;;5.07;;
54977;SDS011;40873;47.522;19.106;2023-02-28T07:41:04;8.40;;;4.70;;
54977;SDS011;40873;47.522;19.106;2023-02-28T07:43:31;11.75;;;4.65;;
54977;SDS011;40873;47.522;19.106;2023-02-28T07:46:03;9.93;;;4.85;;
54977;SDS011;40873;47.522;19.106;2023-02-28T07:48:32;12.85;;;5.22;;
54977;SDS011;40873;47.522;19.106;2023-02-28T07:50:59;13.60;;;5.43;;
54977;SDS011;40873;47.522;19.106;2023-02-28T07:53:27;11.07;;;4.90;;
54977;SDS011;40873;47.522;19.106;2023-02-28T07:55:55;16.77;;;4.47;;
54977;SDS011;40873;47.522;19.106;2023-02-28T07:58:27;10.38;;;5.00;;
54977;SDS011;40873;47.522;19.106;2023-02-28T08:00:55;10.52;;;5.00;;
54977;SDS011;40873;47.522;19.106;2023-02-28T08:03:23;10.65;;;4.53;;
54977;SDS011;40873;47.522;19.106;2023-02-28T08:05:51;8.70;;;5.07;;
54977;SDS011;40873;47.522;19.106;2023-02-28T08:08:19;13.07;;;5.05;;
54977;SDS011;40873;47.522;19.106;2023-02-28T08:10:46;7.53;;;4.13;;
54977;SDS011;40873;47.522;19.106;2023-02-28T08:13:13;12.27;;;5.22;;
54977;SDS011;40873;47.522;19.106;2023-02-28T08:15:40;9.13;;;4.45;;
54977;SDS011;40873;47.522;19.106;2023-02-28T08:18:09;10.40;;;4.13;;
54977;SDS011;40873;47.522;19.106;2023-02-28T08:20:36;9.63;;;4.75;;
54977;SDS011;40873;47.522;19.106;2023-02-28T08:23:03;12.48;;;4.80;;
54977;SDS011;40873;47.522;19.106;2023-02-28T08:25:30;9.63;;;4.90;;
54977;SDS011;40873;47.522;19.106;2023-02-28T08:27:57;9.23;;;5.07;;
54977;SDS011;40873;47.522;19.106;2023-02-28T08:30:24;14.25;;;5.50;;
54977;SDS011;40873;47.522;19.106;2023-02-28T08:32:51;10.35;;;4.97;;
54977;SDS011;40873;47.522;19.106;2023-02-28T08:35:18;12.48;;;5.80;;
54977;SDS011;40873;47.522;19.106;2023-02-28T08:37:47;11.55;;;5.43;;
54977;SDS011;40873;47.522;19.106;2023-02-28T08:40:14;13.27;;;5.05;;
54977;SDS011;40873;47.522;19.106;2023-02-28T08:42:45;8.23;;;3.85;;
54977;SDS011;40873;47.522;19.106;2023-02-28T08:45:13;11.52;;;3.75;;
54977;SDS011;40873;47.522;19.106;2023-02-28T08:47:41;7.30;;;3.97;;
54977;SDS011;40873;47.522;19.106;2023-02-28T08:50:08;9.23;;;4.15;;
54977;SDS011;40873;47.522;19.106;2023-02-28T08:52:35;8.98;;;4.25;;
54977;SDS011;40873;47.522;19.106;2023-02-28T08:55:02;6.03;;;3.00;;
54977;SDS011;40873;47.522;19.106;2023-02-28T08:57:29;6.43;;;3.45;;
54977;SDS011;40873;47.522;19.106;2023-02-28T08:59:56;7.07;;;3.83;;
54977;SDS011;40873;47.522;19.106;2023-02-28T09:02:23;5.88;;;3.38;;
54977;SDS011;40873;47.522;19.106;2023-02-28T09:04:50;7.68;;;3.28;;
54977;SDS011;40873;47.522;19.106;2023-02-28T09:07:17;8.25;;;3.95;;
54977;SDS011;40873;47.522;19.106;2023-02-28T09:09:45;7.68;;;3.40;;
54977;SDS011;40873;47.522;19.106;2023-02-28T09:12:21;10.85;;;3.90;;
54977;SDS011;40873;47.522;19.106;2023-02-28T09:14:49;6.10;;;3.00;;
54977;SDS011;40873;47.522;19.106;2023-02-28T09:17:16;7.80;;;3.38;;
54977;SDS011;40873;47.522;19.106;2023-02-28T09:19:43;7.85;;;3.30;;
54977;SDS011;40873;47.522;19.106;2023-02-28T09:22:10;7.68;;;3.28;;
54977;SDS011;40873;47.522;19.106;2023-02-28T09:24:38;6.53;;;3.33;;
54977;SDS011;40873;47.522;19.106;2023-02-28T09:27:05;9.43;;;3.33;;
54977;SDS011;40873;47.522;19.106;2023-02-28T09:29:34;8.90;;;3.03;;
54977;SDS011;40873;47.522;19.106;2023-02-28T09:32:01;20.52;;;7.38;;
54977;SDS011;40873;47.522;19.106;2023-02-28T09:34:29;22.27;;;8.00;;
54977;SDS011;40873;47.522;19.106;2023-02-28T09:36:57;15.38;;;5.20;;
54977;SDS011;40873;47.522;19.106;2023-02-28T09:39:24;6.20;;;3.67;;
54977;SDS011;40873;47.522;19.106;2023-02-28T09:41:53;8.10;;;4.00;;
54977;SDS011;40873;47.522;19.106;2023-02-28T09:44:27;8.45;;;3.70;;
54977;SDS011;40873;47.522;19.106;2023-02-28T09:47:01;7.97;;;3.85;;
54977;SDS011;40873;47.522;19.106;2023-02-28T09:49:38;7.53;;;3.88;;
54977;SDS011;40873;47.522;19.106;2023-02-28T09:52:18;8.80;;;4.32;;
54977;SDS011;40873;47.522;19.106;2023-02-28T09:54:48;10.00;;;4.40;;
54977;SDS011;40873;47.522;19.106;2023-02-28T10:05:20;9.63;;;4.00;;
54977;SDS011;40873;47.522;19.106;2023-02-28T10:10:41;8.88;;;4.30;;
54977;SDS011;40873;47.522;19.106;2023-02-28T10:15:58;8.10;;;4.38;;
54977;SDS011;40873;47.522;19.106;2023-02-28T10:18:30;7.07;;;3.42;;
54977;SDS011;40873;47.522;19.106;2023-02-28T10:21:04;8.00;;;4.50;;
54977;SDS011;40873;47.522;19.106;2023-02-28T10:23:35;10.25;;;4.32;;
54977;SDS011;40873;47.522;19.106;2023-02-28T10:26:14;7.68;;;3.55;;
54977;SDS011;40873;47.522;19.106;2023-02-28T10:28:43;7.75;;;3.85;;
54977;SDS011;40873;47.522;19.106;2023-02-28T10:31:11;7.40;;;4.65;;
54977;SDS011;40873;47.522;19.106;2023-02-28T10:33:48;10.07;;;4.20;;
54977;SDS011;40873;47.522;19.106;2023-02-28T10:36:17;8.75;;;4.10;;
54977;SDS011;40873;47.522;19.106;2023-02-28T10:38:45;8.48;;;4.10;;
54977;SDS011;40873;47.522;19.106;2023-02-28T10:41:14;6.63;;;3.97;;
54977;SDS011;40873;47.522;19.106;2023-02-28T10:46:44;9.35;;;4.97;;
54977;SDS011;40873;47.522;19.106;2023-02-28T10:49:13;8.32;;;3.70;;
54977;SDS011;40873;47.522;19.106;2023-02-28T10:51:44;6.40;;;3.92;;
54977;SDS011;40873;47.522;19.106;2023-02-28T10:54:22;6.68;;;3.40;;
54977;SDS011;40873;47.522;19.106;2023-02-28T10:57:35;9.68;;;4.05;;
54977;SDS011;40873;47.522;19.106;2023-02-28T11:00:06;9.60;;;4.28;;
54977;SDS011;40873;47.522;19.106;2023-02-28T11:02:41;7.20;;;4.03;;
54977;SDS011;40873;47.522;19.106;2023-02-28T11:05:24;8.02;;;4.95;;
54977;SDS011;40873;47.522;19.106;2023-02-28T11:08:19;8.63;;;4.25;;
54977;SDS011;40873;47.522;19.106;2023-02-28T11:10:47;14.18;;;4.63;;
54977;SDS011;40873;47.522;19.106;2023-02-28T11:13:20;10.90;;;4.28;;
54977;SDS011;40873;47.522;19.106;2023-02-28T11:15:52;15.25;;;5.18;;
54977;SDS011;40873;47.522;19.106;2023-02-28T11:18:27;9.60;;;4.28;;
54977;SDS011;40873;47.522;19.106;2023-02-28T11:21:04;7.97;;;4.00;;
54977;SDS011;40873;47.522;19.106;2023-02-28T11:23:32;10.13;;;4.80;;
54977;SDS011;40873;47.522;19.106;2023-02-28T11:26:03;8.70;;;4.38;;
54977;SDS011;40873;47.522;19.106;2023-02-28T11:28:41;9.18;;;4.00;;
54977;SDS011;40873;47.522;19.106;2023-02-28T11:33:46;6.18;;;3.92;;
54977;SDS011;40873;47.522;19.106;2023-02-28T11:38:48;9.63;;;4.35;;
54977;SDS011;40873;47.522;19.106;2023-02-28T11:47:04;9.85;;;3.97;;
54977;SDS011;40873;47.522;19.106;2023-02-28T11:49:37;8.32;;;3.58;;
54977;SDS011;40873;47.522;19.106;2023-02-28T12:05:53;6.15;;;3.35;;
54977;SDS011;40873;47.522;19.106;2023-02-28T12:11:23;10.27;;;4.57;;
54977;SDS011;40873;47.522;19.106;2023-02-28T12:17:22;8.68;;;3.45;;
54977;SDS011;40873;47.522;19.106;2023-02-28T12:25:48;6.13;;;3.22;;
54977;SDS011;40873;47.522;19.106;2023-02-28T12:28:28;6.10;;;3.25;;
54977;SDS011;40873;47.522;19.106;2023-02-28T12:31:01;6.57;;;3.28;;
54977;SDS011;40873;47.522;19.106;2023-02-28T12:33:36;8.63;;;3.85;;
54977;SDS011;40873;47.522;19.106;2023-02-28T12:36:10;7.82;;;3.55;;
54977;SDS011;40873;47.522;19.106;2023-02-28T12:38:43;8.23;;;3.70;;
54977;SDS011;40873;47.522;19.106;2023-02-28T12:41:26;6.32;;;3.30;;
54977;SDS011;40873;47.522;19.106;2023-02-28T12:44:06;5.72;;;3.20;;
54977;SDS011;40873;47.522;19.106;2023-02-28T12:46:41;6.32;;;3.42;;
54977;SDS011;40873;47.522;19.106;2023-02-28T12:49:12;5.13;;;3.33;;
54977;SDS011;40873;47.522;19.106;2023-02-28T12:51:49;7.90;;;3.83;;
54977;SDS011;40873;47.522;19.106;2023-02-28T12:54:23;9.38;;;3.95;;
54977;SDS011;40873;47.522;19.106;2023-02-28T12:57:18;8.27;;;3.80;;
54977;SDS011;40873;47.522;19.106;2023-02-28T12:59:56;7.75;;;3.33;;
54977;SDS011;40873;47.522;19.106;2023-02-28T13:05:24;8.32;;;3.10;;
54977;SDS011;40873;47.522;19.106;2023-02-28T13:08:24;6.70;;;3.35;;
54977;SDS011;40873;47.522;19.106;2023-02-28T13:10:58;6.78;;;3.60;;
54977;SDS011;40873;47.522;19.106;2023-02-28T13:13:28;5.68;;;2.80;;
54977;SDS011;40873;47.522;19.106;2023-02-28T13:16:08;5.80;;;3.75;;
54977;SDS011;40873;47.522;19.106;2023-02-28T13:18:37;4.90;;;2.85;;
54977;SDS011;40873;47.522;19.106;2023-02-28T13:21:23;7.72;;;3.10;;
54977;SDS011;40873;47.522;19.106;2023-02-28T13:28:58;5.40;;;2.80;;
54977;SDS011;40873;47.522;19.106;2023-02-28T13:31:28;5.80;;;2.60;;
54977;SDS011;40873;47.522;19.106;2023-02-28T13:36:26;8.68;;;3.20;;
54977;SDS011;40873;47.522;19.106;2023-02-28T13:39:02;5.22;;;3.00;;
54977;SDS011;40873;47.522;19.106;2023-02-28T13:41:50;10.82;;;3.00;;
54977;SDS011;40873;47.522;19.106;2023-02-28T13:44:18;6.95;;;3.20;;
54977;SDS011;40873;47.522;19.106;2023-02-28T13:49:33;6.03;;;2.65;;
54977;SDS011;40873;47.522;19.106;2023-02-28T13:52:02;7.95;;;3.75;;
54977;SDS011;40873;47.522;19.106;2023-02-28T14:05:15;7.03;;;3.42;;
54977;SDS011;40873;47.522;19.106;2023-02-28T14:10:32;7.20;;;2.83;;
54977;SDS011;40873;47.522;19.106;2023-02-28T14:13:13;8.50;;;3.10;;
54977;SDS011;40873;47.522;19.106;2023-02-28T14:16:02;9.63;;;3.90;;
54977;SDS011;40873;47.522;19.106;2023-02-28T14:18:33;7.15;;;3.15;;
54977;SDS011;40873;47.522;19.106;2023-02-28T14:34:29;9.10;;;4.10;;
54977;SDS011;40873;47.522;19.106;2023-02-28T14:37:04;6.88;;;4.03;;
54977;SDS011;40873;47.522;19.106;2023-02-28T14:39:31;6.50;;;3.47;;
54977;SDS011;40873;47.522;19.106;2023-02-28T14:41:59;8.90;;;4.05;;
54977;SDS011;40873;47.522;19.106;2023-02-28T14:44:31;6.57;;;3.60;;
54977;SDS011;40873;47.522;19.106;2023-02-28T14:47:02;8.10;;;3.67;;
54977;SDS011;40873;47.522;19.106;2023-02-28T14:49:36;8.45;;;4.15;;
54977;SDS011;40873;47.522;19.106;2023-02-28T14:52:13;9.20;;;3.78;;
54977;SDS011;40873;47.522;19.106;2023-02-28T14:54:55;10.25;;;3.75;;
54977;SDS011;40873;47.522;19.106;2023-02-28T14:57:26;6.70;;;3.20;;
54977;SDS011;40873;47.522;19.106;2023-02-28T14:59:56;10.15;;;3.70;;
54977;SDS011;40873;47.522;19.106;2023-02-28T15:02:26;13.60;;;4.32;;
54977;SDS011;40873;47.522;19.106;2023-02-28T15:04:57;17.13;;;4.32;;
54977;SDS011;40873;47.522;19.106;2023-02-28T15:07:25;6.90;;;3.55;;
54977;SDS011;40873;47.522;19.106;2023-02-28T15:12:49;10.43;;;4.28;;
54977;SDS011;40873;47.522;19.106;2023-02-28T15:15:20;6.68;;;3.85;;
54977;SDS011;40873;47.522;19.106;2023-02-28T15:18:01;6.68;;;3.95;;
54977;SDS011;40873;47.522;19.106;2023-02-28T15:20:32;9.70;;;4.28;;
54977;SDS011;40873;47.522;19.106;2023-02-28T15:23:00;13.60;;;4.80;;
54977;SDS011;40873;47.522;19.106;2023-02-28T15:25:28;16.77;;;5.35;;
54977;SDS011;40873;47.522;19.106;2023-02-28T15:27:55;8.57;;;4.07;;
54977;SDS011;40873;47.522;19.106;2023-02-28T15:30:25;8.32;;;4.50;;
54977;SDS011;40873;47.522;19.106;2023-02-28T15:35:39;12.30;;;5.07;;
54977;SDS011;40873;47.522;19.106;2023-02-28T15:38:26;11.00;;;4.95;;
54977;SDS011;40873;47.522;19.106;2023-02-28T15:40:57;8.82;;;4.60;;
54977;SDS011;40873;47.522;19.106;2023-02-28T15:48:34;10.27;;;4.43;;
54977;SDS011;40873;47.522;19.106;2023-02-28T15:56:30;10.73;;;4.88;;
54977;SDS011;40873;47.522;19.106;2023-02-28T15:59:01;8.82;;;4.25;;
54977;SDS011;40873;47.522;19.106;2023-02-28T16:01:31;11.65;;;5.13;;
54977;SDS011;40873;47.522;19.106;2023-02-28T16:04:04;9.00;;;5.15;;
54977;SDS011;40873;47.522;19.106;2023-02-28T16:09:00;6.75;;;3.83;;
54977;SDS011;40873;47.522;19.106;2023-02-28T16:11:27;10.93;;;4.88;;
54977;SDS011;40873;47.522;19.106;2023-02-28T16:13:55;9.73;;;4.57;;
54977;SDS011;40873;47.522;19.106;2023-02-28T16:16:24;9.30;;;4.15;;
54977;SDS011;40873;47.522;19.106;2023-02-28T16:18:52;11.60;;;4.95;;
54977;SDS011;40873;47.522;19.106;2023-02-28T16:21:20;10.20;;;4.47;;
54977;SDS011;40873;47.522;19.106;2023-02-28T16:23:47;11.77;;;5.45;;
54977;SDS011;40873;47.522;19.106;2023-02-28T16:26:17;10.25;;;4.97;;
54977;SDS011;40873;47.522;19.106;2023-02-28T16:28:47;12.50;;;5.53;;
54977;SDS011;40873;47.522;19.106;2023-02-28T16:31:14;10.70;;;4.60;;
54977;SDS011;40873;47.522;19.106;2023-02-28T16:33:43;13.30;;;5.43;;
54977;SDS011;40873;47.522;19.106;2023-02-28T16:36:18;10.80;;;4.55;;
54977;SDS011;40873;47.522;19.106;2023-02-28T16:38:47;12.23;;;5.88;;
54977;SDS011;40873;47.522;19.106;2023-02-28T16:41:17;10.48;;;4.95;;
54977;SDS011;40873;47.522;19.106;2023-02-28T16:43:47;10.63;;;4.88;;
54977;SDS011;40873;47.522;19.106;2023-02-28T16:46:17;12.25;;;5.28;;
54977;SDS011;40873;47.522;19.106;2023-02-28T16:48:45;8.43;;;4.80;;
54977;SDS011;40873;47.522;19.106;2023-02-28T16:51:17;9.50;;;4.82;;
54977;SDS011;40873;47.522;19.106;2023-02-28T16:53:44;16.10;;;4.85;;
54977;SDS011;40873;47.522;19.106;2023-02-28T16:56:16;9.70;;;5.03;;
54977;SDS011;40873;47.522;19.106;2023-02-28T16:58:45;11.60;;;5.47;;
54977;SDS011;40873;47.522;19.106;2023-02-28T17:01:14;11.73;;;4.93;;
54977;SDS011;40873;47.522;19.106;2023-02-28T17:03:43;11.60;;;5.28;;
54977;SDS011;40873;47.522;19.106;2023-02-28T17:06:23;12.18;;;5.85;;
54977;SDS011;40873;47.522;19.106;2023-02-28T17:08:55;14.45;;;5.63;;
54977;SDS011;40873;47.522;19.106;2023-02-28T17:11:23;13.73;;;6.38;;
54977;SDS011;40873;47.522;19.106;2023-02-28T17:13:50;14.52;;;4.88;;
54977;SDS011;40873;47.522;19.106;2023-02-28T17:16:22;10.90;;;6.05;;